createdAt,value
2022-12-08T08:09:46.099Z,51.8
2022-12-08T08:10:51.255Z,58.1
2022-12-08T08:11:56.355Z,50.6
2022-12-08T08:13:01.531Z,45
2022-12-08T08:14:06.735Z,44.4
2022-12-08T08:15:12.892Z,47
2022-12-08T08:16:19.095Z,43.7
2022-12-08T08:17:24.285Z,43.7
2022-12-08T08:18:29.344Z,37.2
2022-12-08T08:19:35.516Z,38.3
2022-12-08T08:20:40.746Z,37.4
2022-12-08T08:21:46.841Z,37.09
2022-12-08T08:22:51.989Z,37.09
2022-12-08T08:23:58.106Z,35.4
2022-12-08T08:25:04.231Z,33.7
2022-12-08T08:26:10.331Z,36.7
2022-12-08T08:27:16.383Z,31.5
2022-12-08T08:28:22.597Z,34.5
2022-12-08T08:29:28.627Z,31
2022-12-08T08:30:34.862Z,33.2
2022-12-08T08:31:41.025Z,31.4
2022-12-08T08:32:47.158Z,31.2
2022-12-08T08:33:53.260Z,31.7
2022-12-08T08:34:59.323Z,30.4
2022-12-08T08:36:05.359Z,29.1
2022-12-08T08:37:11.479Z,32.5
2022-12-08T08:38:17.664Z,29.9
2022-12-08T08:39:23.888Z,29.7
2022-12-08T08:40:29.998Z,32
2022-12-08T08:41:36.079Z,31.7
2022-12-08T08:42:42.176Z,31
2022-12-08T08:43:48.186Z,30.2
2022-12-08T08:44:54.348Z,29.5
2022-12-08T08:46:00.555Z,30.9
2022-12-08T08:47:06.575Z,27.5
2022-12-08T08:48:12.659Z,29.3
2022-12-08T08:49:18.831Z,29.3
2022-12-08T08:50:24.976Z,32.7
2022-12-08T08:51:31.080Z,31.9
2022-12-08T08:52:37.107Z,30
2022-12-08T08:53:43.259Z,28.1
2022-12-08T08:54:49.359Z,28.6
2022-12-08T08:55:55.564Z,29.8
2022-12-08T08:57:01.661Z,28.8
2022-12-08T08:58:07.768Z,29.5
2022-12-08T08:59:13.919Z,28.7
2022-12-08T09:00:19.916Z,29.9
2022-12-08T09:01:26.031Z,31.2
2022-12-08T09:02:32.218Z,31.2
2022-12-08T09:03:38.388Z,29.4
2022-12-08T09:04:43.571Z,29.6
2022-12-08T09:05:49.698Z,30.3
2022-12-08T09:06:55.817Z,27.7
2022-12-08T09:08:01.983Z,31
2022-12-08T09:09:08.076Z,28.8
2022-12-08T09:10:14.191Z,28.4
2022-12-08T09:11:20.217Z,29.2
2022-12-08T09:12:26.294Z,31
2022-12-08T09:13:32.564Z,26.2
2022-12-08T09:14:38.624Z,26.4
2022-12-08T09:15:44.727Z,26.9
2022-12-08T09:16:50.802Z,25.1
2022-12-08T09:17:56.867Z,25.9
2022-12-08T09:19:02.987Z,27.9
2022-12-08T09:20:09.138Z,27.3
2022-12-08T09:21:15.235Z,25.8
2022-12-08T09:22:21.409Z,25.6
2022-12-08T09:23:27.496Z,25.8
2022-12-08T09:24:33.625Z,27.6
2022-12-08T09:25:39.805Z,26.4
2022-12-08T09:26:45.925Z,26.6
2022-12-08T09:27:51.973Z,26.3
2022-12-08T09:28:58.064Z,27.2
2022-12-08T09:30:04.204Z,24.2
2022-12-08T09:31:10.340Z,24.6
2022-12-08T09:32:16.619Z,26.5
2022-12-08T09:33:21.626Z,25.1
2022-12-08T09:34:27.832Z,22.7
2022-12-08T09:35:33.867Z,24.5
2022-12-08T09:36:39.941Z,24.4
2022-12-08T09:37:46.200Z,23.5
2022-12-08T09:38:52.259Z,23.1
2022-12-08T09:39:58.303Z,25.2
2022-12-08T09:41:04.488Z,26.5
2022-12-08T09:42:10.633Z,25
2022-12-08T09:43:16.609Z,25.7
